Time,TemperatureF,DewpointF,PressureIn,WindDirection,WindDirectionDegrees,WindSpeedMPH,WindSpeedGustMPH,Humidity,HourlyPrecipIn,Conditions,Clouds,dailyrainin,SolarRadiationWatts/m^2,SoftwareType,DateUTC
2013-07-27 00:02:00,68.0,64.0,30.06,ENE,64,0.0,0.0,87,0.00,,,0.00,20.000000,,2013-07-27 04:02:00,
2013-07-27 00:12:00,68.0,64.0,30.06,ENE,64,0.0,0.0,87,0.00,,,0.00,31.000000,,2013-07-27 04:12:00,
2013-07-27 00:22:00,68.0,64.0,30.06,ENE,64,0.0,0.0,87,0.00,,,0.00,24.000000,,2013-07-27 04:22:00,
2013-07-27 00:32:00,67.0,63.0,30.06,ENE,64,0.0,0.0,88,0.00,,,0.00,19.000000,,2013-07-27 04:32:00,
2013-07-27 00:43:00,67.0,63.0,30.06,ENE,64,0.0,0.0,88,0.00,,,0.00,16.000000,,2013-07-27 04:43:00,
2013-07-27 00:53:00,67.0,63.0,30.06,ENE,64,0.0,0.0,88,0.00,,,0.00,16.000000,,2013-07-27 04:53:00,
2013-07-27 01:02:00,67.0,63.0,30.06,ENE,64,0.0,0.0,88,0.00,,,0.00,14.000000,,2013-07-27 05:02:00,
2013-07-27 01:12:00,67.0,63.0,30.06,ENE,64,0.0,0.0,88,0.00,,,0.00,14.000000,,2013-07-27 05:12:00,
2013-07-27 01:32:00,67.0,64.0,30.05,ENE,64,0.0,0.0,89,0.00,,,0.00,7.000000,,2013-07-27 05:32:00,
2013-07-27 01:43:00,66.0,63.0,30.05,ENE,64,0.0,0.0,89,0.00,,,0.00,8.000000,,2013-07-27 05:43:00,
2013-07-27 01:52:00,66.0,63.0,30.05,ENE,64,0.0,0.0,89,0.00,,,0.00,11.000000,,2013-07-27 05:52:00,
2013-07-27 02:02:00,66.0,63.0,30.04,ENE,64,0.0,0.0,90,0.00,,,0.00,12.000000,,2013-07-27 06:02:00,
2013-07-27 02:12:00,66.0,63.0,30.04,ENE,64,0.0,0.0,90,0.00,,,0.00,12.000000,,2013-07-27 06:12:00,
2013-07-27 02:33:00,66.0,63.0,30.04,ENE,64,0.0,0.0,90,0.00,,,0.00,17.000000,,2013-07-27 06:33:00,
2013-07-27 02:52:00,66.0,63.0,30.04,ENE,64,0.0,0.0,90,0.00,,,0.00,12.000000,,2013-07-27 06:52:00,
2013-07-27 03:02:00,66.0,63.0,30.04,ENE,64,0.0,0.0,90,0.00,,,0.00,12.000000,,2013-07-27 07:02:00,
2013-07-27 03:34:00,66.0,63.0,30.03,ENE,64,0.0,0.0,91,0.00,,,0.00,7.000000,,2013-07-27 07:34:00,
2013-07-27 03:44:00,66.0,63.0,30.03,ENE,64,0.0,0.0,91,0.00,,,0.00,7.000000,,2013-07-27 07:44:00,
2013-07-27 03:52:00,65.0,62.0,30.03,ENE,64,0.0,0.0,91,0.00,,,0.00,7.000000,,2013-07-27 07:52:00,
2013-07-27 04:02:00,65.0,63.0,30.03,ENE,66,0.0,0.0,92,0.00,,,0.00,7.000000,,2013-07-27 08:02:00,
2013-07-27 04:32:00,66.0,64.0,30.03,SSE,167,0.0,0.0,93,0.00,,,0.00,7.000000,,2013-07-27 08:32:00,
2013-07-27 04:43:00,66.0,64.0,30.02,SSE,158,0.0,0.0,94,0.00,,,0.00,7.000000,,2013-07-27 08:43:00,
2013-07-27 04:53:00,66.0,64.0,30.02,SSE,162,0.0,0.0,94,0.00,,,0.00,6.000000,,2013-07-27 08:53:00,
2013-07-27 05:02:00,66.0,64.0,30.02,SSE,162,0.0,0.0,94,0.00,,,0.00,7.000000,,2013-07-27 09:02:00,
2013-07-27 05:22:00,66.0,64.0,30.03,SSE,162,0.0,0.0,94,0.00,,,0.00,7.000000,,2013-07-27 09:22:00,
2013-07-27 05:44:00,66.0,65.0,30.03,SSE,162,0.0,0.0,95,0.00,,,0.00,15.000000,,2013-07-27 09:44:00,
2013-07-27 05:52:00,66.0,65.0,30.03,SSE,162,0.0,0.0,95,0.00,,,0.00,15.000000,,2013-07-27 09:52:00,
2013-07-27 06:02:00,66.0,65.0,30.03,SSE,162,0.0,2.0,95,0.00,,,0.00,15.000000,,2013-07-27 10:02:00,
2013-07-27 06:12:00,66.0,65.0,30.03,SSE,162,0.0,2.0,95,0.00,,,0.00,15.000000,,2013-07-27 10:12:00,
2013-07-27 06:22:00,66.0,65.0,30.03,SSE,162,0.0,2.0,95,0.00,,,0.00,15.000000,,2013-07-27 10:22:00,
2013-07-27 06:32:00,66.0,65.0,30.02,SSE,163,0.0,0.0,95,0.00,,,0.00,36.000000,,2013-07-27 10:32:00,
2013-07-27 06:43:00,66.0,65.0,30.02,SSE,163,0.0,0.0,95,0.00,,,0.00,36.000000,,2013-07-27 10:43:00,
2013-07-27 06:52:00,66.0,65.0,30.03,SSE,163,0.0,0.0,95,0.00,,,0.00,48.000000,,2013-07-27 10:52:00,
2013-07-27 07:02:00,66.0,65.0,30.03,SSE,163,0.0,1.0,96,0.00,,,0.00,73.000000,,2013-07-27 11:02:00,
2013-07-27 07:32:00,67.0,66.0,30.03,SSE,163,0.0,1.0,96,0.00,,,0.00,90.000000,,2013-07-27 11:32:00,
2013-07-27 07:44:00,67.0,66.0,30.03,SSE,163,0.0,4.0,96,0.00,,,0.00,116.000000,,2013-07-27 11:44:00,
2013-07-27 07:52:00,67.0,66.0,30.03,SSE,163,0.0,4.0,96,0.00,,,0.00,116.000000,,2013-07-27 11:52:00,
2013-07-27 08:03:00,68.0,67.0,30.03,SSE,163,0.0,3.0,96,0.00,,,0.00,93.000000,,2013-07-27 12:03:00,
2013-07-27 08:13:00,68.0,67.0,30.03,SSE,163,0.0,3.0,96,0.00,,,0.00,93.000000,,2013-07-27 12:13:00,
2013-07-27 08:43:00,70.0,69.0,30.04,SSW,203,0.0,4.0,97,0.00,,,0.00,176.000000,,2013-07-27 12:43:00,
2013-07-27 08:52:00,70.0,69.0,30.04,SSE,167,0.0,4.0,97,0.00,,,0.00,269.000000,,2013-07-27 12:52:00,
2013-07-27 09:02:00,71.0,70.0,30.04,South,174,1.0,4.0,97,0.00,,,0.00,335.000000,,2013-07-27 13:02:00,
2013-07-27 09:12:00,71.0,70.0,30.04,WSW,249,0.0,4.0,97,0.00,,,0.00,374.000000,,2013-07-27 13:12:00,
2013-07-27 09:22:00,72.0,71.0,30.05,SSE,165,4.0,9.0,96,0.00,,,0.00,248.000000,,2013-07-27 13:22:00,
2013-07-27 09:32:00,72.0,71.0,30.05,SSE,165,4.0,9.0,96,0.00,,,0.00,248.000000,,2013-07-27 13:32:00,
2013-07-27 09:44:00,72.0,70.0,30.05,SSE,164,0.0,10.0,92,0.00,,,0.00,374.000000,,2013-07-27 13:44:00,
2013-07-27 10:02:00,74.0,69.0,30.05,WSW,257,0.0,11.0,84,0.00,,,0.00,473.000000,,2013-07-27 14:02:00,
2013-07-27 10:32:00,76.0,69.0,30.04,WSW,244,1.0,10.0,80,0.00,,,0.00,405.000000,,2013-07-27 14:32:00,
2013-07-27 10:54:00,78.0,69.0,30.04,SSW,194,2.0,11.0,75,0.00,,,0.00,718.000000,,2013-07-27 14:54:00,
2013-07-27 11:02:00,79.0,70.0,30.04,SSW,193,1.0,11.0,74,0.00,,,0.00,743.000000,,2013-07-27 15:02:00,
2013-07-27 11:12:00,79.0,69.0,30.04,SSE,165,1.0,10.0,72,0.00,,,0.00,800.000000,,2013-07-27 15:12:00,
2013-07-27 11:44:00,81.0,69.0,30.04,South,189,1.0,7.0,66,0.00,,,0.00,274.000000,,2013-07-27 15:44:00,
2013-07-27 11:53:00,81.0,69.0,30.04,South,187,2.0,7.0,66,0.00,,,0.00,245.000000,,2013-07-27 15:53:00,
2013-07-27 12:02:00,81.0,69.0,30.04,SSW,193,0.0,7.0,67,0.00,,,0.00,244.000000,,2013-07-27 16:02:00,
2013-07-27 12:12:00,80.0,69.0,30.04,WSW,238,0.0,5.0,70,0.00,,,0.00,834.000000,,2013-07-27 16:12:00,
2013-07-27 12:33:00,82.0,70.0,30.03,WSW,255,1.0,11.0,68,0.00,,,0.00,654.000000,,2013-07-27 16:33:00,
2013-07-27 12:43:00,84.0,69.0,30.03,SW,223,2.0,12.0,61,0.00,,,0.00,952.000000,,2013-07-27 16:43:00,
2013-07-27 12:53:00,84.0,68.0,30.03,West,277,1.0,11.0,59,0.00,,,0.00,948.000000,,2013-07-27 16:53:00,
2013-07-27 13:02:00,86.0,67.0,30.03,SSW,213,3.0,11.0,53,0.00,,,0.00,945.000000,,2013-07-27 17:02:00,
2013-07-27 13:12:00,86.0,68.0,30.01,SSW,200,2.0,11.0,56,0.00,,,0.00,983.000000,,2013-07-27 17:12:00,
2013-07-27 14:03:00,87.0,69.0,30.00,West,273,0.0,4.0,55,0.00,,,0.00,542.000000,,2013-07-27 18:03:00,
2013-07-27 14:12:00,87.0,68.0,30.00,South,179,0.0,4.0,54,0.00,,,0.00,597.000000,,2013-07-27 18:12:00,
2013-07-27 14:22:00,86.0,68.0,29.99,SSW,212,0.0,6.0,55,0.00,,,0.00,613.000000,,2013-07-27 18:22:00,
2013-07-27 14:33:00,86.0,68.0,29.99,SSW,212,0.0,6.0,55,0.00,,,0.00,613.000000,,2013-07-27 18:33:00,
2013-07-27 14:43:00,86.0,68.0,29.99,SSW,212,0.0,6.0,55,0.00,,,0.00,613.000000,,2013-07-27 18:43:00,
2013-07-27 14:53:00,86.0,68.0,29.99,SSW,212,0.0,6.0,55,0.00,,,0.00,613.000000,,2013-07-27 18:53:00,
2013-07-27 15:02:00,84.0,67.0,29.97,SSW,193,3.0,11.0,57,0.00,,,0.00,541.000000,,2013-07-27 19:02:00,
2013-07-27 15:12:00,84.0,68.0,29.97,SSW,204,1.0,9.0,58,0.00,,,0.00,748.000000,,2013-07-27 19:12:00,
2013-07-27 15:23:00,84.0,68.0,29.97,SSW,204,1.0,9.0,58,0.00,,,0.00,748.000000,,2013-07-27 19:23:00,
2013-07-27 15:32:00,84.0,68.0,29.97,SSW,204,1.0,9.0,58,0.00,,,0.00,748.000000,,2013-07-27 19:32:00,
2013-07-27 15:43:00,84.0,68.0,29.97,SSW,204,1.0,9.0,58,0.00,,,0.00,748.000000,,2013-07-27 19:43:00,
2013-07-27 15:53:00,86.0,69.0,29.96,NNE,26,0.0,6.0,57,0.00,,,0.00,650.000000,,2013-07-27 19:53:00,
2013-07-27 16:02:00,85.0,69.0,29.96,SSW,194,1.0,5.0,58,0.00,,,0.00,386.000000,,2013-07-27 20:02:00,
2013-07-27 16:12:00,85.0,69.0,29.96,SSW,194,1.0,5.0,58,0.00,,,0.00,386.000000,,2013-07-27 20:12:00,
2013-07-27 16:23:00,86.0,69.0,29.95,South,176,1.0,5.0,58,0.00,,,0.00,613.000000,,2013-07-27 20:23:00,
2013-07-27 16:32:00,86.0,69.0,29.95,South,176,1.0,5.0,58,0.00,,,0.00,613.000000,,2013-07-27 20:32:00,
2013-07-27 16:43:00,86.0,68.0,29.94,South,189,1.0,8.0,56,0.00,,,0.00,482.000000,,2013-07-27 20:43:00,
2013-07-27 16:52:00,86.0,68.0,29.94,South,189,1.0,8.0,56,0.00,,,0.00,482.000000,,2013-07-27 20:52:00,
2013-07-27 17:03:00,86.0,71.0,29.95,South,183,0.0,5.0,61,0.00,,,0.00,619.000000,,2013-07-27 21:03:00,
2013-07-27 17:12:00,85.0,67.0,29.95,SSW,192,0.0,11.0,55,0.00,,,0.00,627.000000,,2013-07-27 21:12:00,
2013-07-27 17:23:00,85.0,68.0,29.95,South,169,1.0,11.0,56,0.00,,,0.00,509.000000,,2013-07-27 21:23:00,
2013-07-27 17:33:00,85.0,68.0,29.95,South,169,1.0,11.0,56,0.00,,,0.00,509.000000,,2013-07-27 21:33:00,
2013-07-27 17:43:00,84.0,68.0,29.95,SW,220,0.0,6.0,59,0.00,,,0.00,185.000000,,2013-07-27 21:43:00,
2013-07-27 17:52:00,84.0,69.0,29.95,South,175,2.0,8.0,60,0.00,,,0.00,202.000000,,2013-07-27 21:52:00,
2013-07-27 18:02:00,83.0,69.0,29.95,SSW,203,1.0,12.0,63,0.00,,,0.00,190.000000,,2013-07-27 22:02:00,
2013-07-27 18:13:00,82.0,69.0,29.95,South,190,0.0,6.0,65,0.00,,,0.00,209.000000,,2013-07-27 22:13:00,
2013-07-27 18:22:00,81.0,68.0,29.96,SSE,165,1.0,6.0,65,0.00,,,0.00,148.000000,,2013-07-27 22:22:00,
2013-07-27 18:33:00,81.0,68.0,29.96,SSE,165,1.0,6.0,65,0.00,,,0.00,148.000000,,2013-07-27 22:33:00,
2013-07-27 18:43:00,81.0,68.0,29.96,SSW,194,0.0,7.0,65,0.00,,,0.00,104.000000,,2013-07-27 22:43:00,
2013-07-27 18:53:00,81.0,68.0,29.96,SSW,194,0.0,7.0,65,0.00,,,0.00,104.000000,,2013-07-27 22:53:00,
2013-07-27 19:02:00,80.0,68.0,29.95,SSW,211,0.0,4.0,67,0.00,,,0.00,130.000000,,2013-07-27 23:02:00,
2013-07-27 19:12:00,80.0,68.0,29.95,South,185,1.0,5.0,68,0.00,,,0.00,124.000000,,2013-07-27 23:12:00,
2013-07-27 19:22:00,80.0,68.0,29.95,South,185,1.0,5.0,68,0.00,,,0.00,124.000000,,2013-07-27 23:22:00,
2013-07-27 19:32:00,80.0,68.0,29.95,South,185,1.0,5.0,68,0.00,,,0.00,124.000000,,2013-07-27 23:32:00,
2013-07-27 19:44:00,79.0,68.0,29.97,SSW,197,0.0,1.0,69,0.00,,,0.00,29.000000,,2013-07-27 23:44:00,
2013-07-27 19:52:00,78.0,67.0,29.97,South,175,0.0,3.0,70,0.00,,,0.00,22.000000,,2013-07-27 23:52:00,
2013-07-27 20:02:00,78.0,69.0,29.97,South,176,0.0,1.0,75,0.01,,,0.01,24.000000,,2013-07-28 00:02:00,
2013-07-27 20:12:00,77.0,70.0,29.97,South,176,0.0,0.0,80,0.05,,,0.05,17.000000,,2013-07-28 00:12:00,
2013-07-27 20:23:00,77.0,70.0,29.97,South,176,0.0,0.0,80,0.05,,,0.05,17.000000,,2013-07-28 00:23:00,
2013-07-27 20:32:00,76.0,70.0,29.97,South,176,0.0,0.0,83,0.07,,,0.07,17.000000,,2013-07-28 00:32:00,
2013-07-27 20:44:00,76.0,70.0,29.97,South,176,0.0,0.0,83,0.07,,,0.07,17.000000,,2013-07-28 00:44:00,
2013-07-27 20:53:00,75.0,70.0,29.96,South,176,0.0,0.0,85,0.07,,,0.07,14.000000,,2013-07-28 00:53:00,
2013-07-27 21:02:00,74.0,70.0,29.96,South,176,0.0,0.0,86,0.06,,,0.07,12.000000,,2013-07-28 01:02:00,
2013-07-27 21:12:00,74.0,70.0,29.96,South,176,0.0,1.0,87,0.02,,,0.07,12.000000,,2013-07-28 01:12:00,
2013-07-27 21:23:00,74.0,70.0,29.96,South,176,0.0,1.0,87,0.01,,,0.07,12.000000,,2013-07-28 01:23:00,
2013-07-27 21:32:00,73.0,69.0,29.96,South,176,0.0,0.0,88,0.00,,,0.07,14.000000,,2013-07-28 01:32:00,
2013-07-27 21:43:00,73.0,69.0,29.95,SSW,192,0.0,3.0,88,0.00,,,0.07,26.000000,,2013-07-28 01:43:00,
2013-07-27 21:53:00,72.0,68.0,29.95,SSW,192,0.0,0.0,88,0.00,,,0.07,16.000000,,2013-07-28 01:53:00,
2013-07-27 22:03:00,72.0,68.0,29.95,SSW,192,0.0,0.0,88,0.00,,,0.07,16.000000,,2013-07-28 02:03:00,
2013-07-27 22:12:00,72.0,69.0,29.95,West,260,0.0,2.0,89,0.00,,,0.07,27.000000,,2013-07-28 02:12:00,
2013-07-27 22:22:00,72.0,69.0,29.95,West,260,0.0,0.0,89,0.00,,,0.07,27.000000,,2013-07-28 02:22:00,
2013-07-27 22:32:00,71.0,68.0,29.95,West,260,0.0,0.0,89,0.00,,,0.07,27.000000,,2013-07-28 02:32:00,
2013-07-27 22:42:00,71.0,68.0,29.95,West,260,0.0,0.0,89,0.00,,,0.07,27.000000,,2013-07-28 02:42:00,
2013-07-27 22:53:00,71.0,68.0,29.95,West,260,0.0,0.0,89,0.00,,,0.07,27.000000,,2013-07-28 02:53:00,
2013-07-27 23:03:00,71.0,68.0,29.95,WSW,255,0.0,1.0,90,0.00,,,0.07,15.000000,,2013-07-28 03:03:00,
2013-07-27 23:12:00,71.0,68.0,29.95,SW,232,0.0,2.0,91,0.00,,,0.07,21.000000,,2013-07-28 03:12:00,
2013-07-27 23:22:00,71.0,68.0,29.95,SW,232,0.0,2.0,91,0.00,,,0.07,22.000000,,2013-07-28 03:22:00,
2013-07-27 23:32:00,70.0,67.0,29.95,SW,226,0.0,2.0,91,0.00,,,0.07,22.000000,,2013-07-28 03:32:00,
2013-07-27 23:42:00,70.0,67.0,29.95,South,179,0.0,6.0,91,0.00,,,0.07,30.000000,,2013-07-28 03:42:00,
2013-07-27 23:53:00,70.0,67.0,29.95,South,179,0.0,6.0,91,0.00,,,0.07,30.000000,,2013-07-28 03:53:00,